createdAt,value
2018-09-08T00:03:37.122Z,95981.00
2018-09-08T00:09:09.600Z,95995.00
2018-09-08T00:14:38.200Z,95988.00
2018-09-08T00:20:12.608Z,95999.00
2018-09-08T00:25:47.102Z,96001.00
2018-09-08T00:31:17.882Z,96011.00
2018-09-08T00:36:47.345Z,96017.00
2018-09-08T00:42:18.775Z,96012.00
2018-09-08T00:47:47.972Z,96024.00
2018-09-08T00:53:17.213Z,96014.00
2018-09-08T00:58:51.651Z,96016.00
2018-09-08T01:04:20.863Z,96010.00
2018-09-08T01:09:51.106Z,96016.00
2018-09-08T01:15:20.332Z,96013.00
2018-09-08T01:20:49.591Z,96016.00
2018-09-08T01:26:19.524Z,96023.00
2018-09-08T01:31:48.739Z,96030.00
2018-09-08T01:37:17.953Z,96022.00
2018-09-08T01:43:01.835Z,96013.00
2018-09-08T01:48:31.084Z,96016.00
2018-09-08T01:54:00.287Z,96026.00
2018-09-08T01:59:34.192Z,96033.00
2018-09-08T02:05:03.453Z,96055.00
2018-09-08T02:10:33.699Z,96054.00
2018-09-08T02:16:02.919Z,96061.00
2018-09-08T02:21:32.161Z,96057.00
2018-09-08T02:27:01.460Z,96059.00
2018-09-08T02:32:31.472Z,96058.00
2018-09-08T02:38:00.663Z,96063.00
2018-09-08T02:43:29.844Z,96063.00
2018-09-08T02:48:59.063Z,96066.00
2018-09-08T02:54:26.716Z,96065.00
2018-09-08T02:59:54.335Z,96067.00
2018-09-08T03:05:23.251Z,96059.00
2018-09-08T03:10:50.865Z,96053.00
2018-09-08T03:16:18.826Z,96069.00
2018-09-08T03:21:47.742Z,96061.00
2018-09-08T03:27:15.379Z,96073.00
2018-09-08T03:32:43.013Z,96057.00
2018-09-08T03:38:10.629Z,96066.00
2018-09-08T03:43:38.299Z,96062.00
2018-09-08T03:49:05.940Z,96053.00
2018-09-08T03:54:33.551Z,96050.00
2018-09-08T04:00:01.226Z,96056.00
2018-09-08T04:05:30.468Z,96053.00
2018-09-08T04:10:59.770Z,96060.00
2018-09-08T04:16:28.962Z,96048.00
2018-09-08T04:21:58.163Z,96064.00
2018-09-08T04:27:27.360Z,96065.00
2018-09-08T04:32:56.696Z,96070.00
2018-09-08T04:38:25.878Z,96079.00
2018-09-08T04:43:55.114Z,96083.00
2018-09-08T04:49:24.338Z,96083.00
2018-09-08T04:54:53.688Z,96089.00
2018-09-08T05:00:22.867Z,96088.00
2018-09-08T05:06:06.353Z,96084.00
2018-09-08T05:11:35.725Z,96085.00
2018-09-08T05:17:05.060Z,96086.00
2018-09-08T05:22:34.376Z,96095.00
2018-09-08T05:28:03.687Z,96097.00
2018-09-08T05:33:32.962Z,96089.00
2018-09-08T05:39:02.284Z,96096.00
2018-09-08T05:44:31.485Z,96106.00
2018-09-08T05:50:00.764Z,96100.00
2018-09-08T05:55:30.369Z,96110.00
2018-09-08T06:00:59.634Z,96113.00
2018-09-08T06:06:29.328Z,96116.00
2018-09-08T06:11:58.774Z,96106.00
2018-09-08T06:17:30.369Z,96111.00
2018-09-08T06:23:00.123Z,96124.00
2018-09-08T06:28:29.562Z,96130.00
2018-09-08T06:34:03.631Z,96138.00
2018-09-08T06:39:32.884Z,96138.00
2018-09-08T06:45:07.688Z,96138.00
2018-09-08T06:50:38.092Z,96139.00
2018-09-08T06:56:08.160Z,96145.00
2018-09-08T07:01:37.589Z,96143.00
2018-09-08T07:07:11.628Z,96141.00
2018-09-08T07:12:41.012Z,96160.00
2018-09-08T07:18:10.665Z,96153.00
2018-09-08T07:23:40.178Z,96161.00
2018-09-08T07:29:09.711Z,96162.00
2018-09-08T07:34:39.498Z,96166.00
2018-09-08T07:40:11.376Z,96173.00
2018-09-08T07:45:41.906Z,96174.00
2018-09-08T07:51:11.479Z,96172.00
2018-09-08T07:56:41.556Z,96178.00
2018-09-08T08:02:10.928Z,96188.00
2018-09-08T08:07:43.361Z,96198.00
2018-09-08T08:13:13.023Z,96194.00
2018-09-08T08:18:42.372Z,96197.00
2018-09-08T08:24:11.889Z,96195.00
2018-09-08T08:29:41.561Z,96202.00
2018-09-08T08:35:13.885Z,96202.00
2018-09-08T08:40:44.660Z,96200.00
2018-09-08T08:46:15.020Z,96208.00
2018-09-08T08:52:02.421Z,96202.00
2018-09-08T08:57:32.340Z,96193.00
2018-09-08T09:03:03.400Z,96197.00
2018-09-08T09:08:34.783Z,96199.00
2018-09-08T09:14:05.763Z,96203.00
2018-09-08T09:19:52.163Z,96195.00
2018-09-08T09:25:22.533Z,96189.00
2018-09-08T09:30:56.643Z,96179.00
2018-09-08T09:36:25.975Z,96182.00
2018-09-08T09:41:55.285Z,96181.00
2018-09-08T09:47:24.667Z,96178.00
2018-09-08T09:52:54.184Z,96177.00
2018-09-08T09:58:23.471Z,96173.00
2018-09-08T10:03:52.783Z,96179.00
2018-09-08T10:09:22.523Z,96171.00
2018-09-08T10:14:51.944Z,96159.00
2018-09-08T10:20:23.361Z,96149.00
2018-09-08T10:25:53.052Z,96150.00
2018-09-08T10:31:29.951Z,96150.00
2018-09-08T10:37:01.798Z,96148.00
2018-09-08T10:42:31.172Z,96155.00
2018-09-08T10:48:00.736Z,96154.00
2018-09-08T10:53:30.027Z,96136.00
2018-09-08T10:59:00.002Z,96144.00
2018-09-08T11:04:30.064Z,96135.00
2018-09-08T11:09:59.916Z,96149.00
2018-09-08T11:15:30.061Z,96144.00
2018-09-08T11:20:59.295Z,96128.00
2018-09-08T11:26:28.571Z,96135.00
2018-09-08T11:31:57.877Z,96141.00
2018-09-08T11:37:27.104Z,96137.00
2018-09-08T11:42:56.411Z,96131.00
2018-09-08T11:48:31.876Z,96123.00
2018-09-08T11:54:01.223Z,96130.00
2018-09-08T11:59:30.699Z,96135.00
2018-09-08T12:05:03.486Z,96118.00
2018-09-08T12:10:32.772Z,96107.00
2018-09-08T12:16:02.224Z,96099.00
2018-09-08T12:21:31.579Z,96113.00
2018-09-08T12:27:00.985Z,96104.00
2018-09-08T12:32:30.249Z,96107.00
2018-09-08T12:37:59.547Z,96103.00
2018-09-08T12:43:28.883Z,96104.00
2018-09-08T12:48:59.355Z,96097.00
2018-09-08T12:54:28.641Z,96101.00
2018-09-08T12:59:57.903Z,96094.00
2018-09-08T13:05:27.196Z,96087.00
2018-09-08T13:10:56.516Z,96078.00
2018-09-08T13:16:25.830Z,96073.00
2018-09-08T13:21:55.079Z,96070.00
2018-09-08T13:27:24.397Z,96075.00
2018-09-08T13:32:53.735Z,96066.00
2018-09-08T13:38:23.107Z,96074.00
2018-09-08T13:43:52.746Z,96040.00
2018-09-08T13:49:23.196Z,96033.00
2018-09-08T13:54:53.916Z,96045.00
2018-09-08T14:00:24.311Z,96061.00
2018-09-08T14:05:53.524Z,96048.00
2018-09-08T14:11:22.784Z,96060.00
2018-09-08T14:16:52.033Z,96000.00
2018-09-08T14:22:21.275Z,95989.00
2018-09-08T14:27:50.483Z,95978.00
2018-09-08T14:33:19.735Z,95975.00
2018-09-08T14:38:49.099Z,95966.00
2018-09-08T14:44:18.376Z,95975.00
2018-09-08T14:49:47.643Z,95983.00
2018-09-08T14:55:16.990Z,95983.00
2018-09-08T15:00:46.300Z,95994.00
2018-09-08T15:06:15.735Z,96011.00
2018-09-08T15:11:46.133Z,96057.00
2018-09-08T15:17:15.871Z,96058.00
2018-09-08T15:22:46.821Z,96056.00
2018-09-08T15:28:16.385Z,96049.00
2018-09-08T15:33:45.751Z,96059.00
2018-09-08T15:39:15.000Z,96048.00
2018-09-08T15:44:44.366Z,96054.00
2018-09-08T15:50:13.886Z,96053.00
2018-09-08T15:55:45.456Z,96059.00
2018-09-08T16:01:14.697Z,96065.00
2018-09-08T16:06:44.511Z,96061.00
2018-09-08T16:12:14.660Z,96065.00
2018-09-08T16:17:44.017Z,96062.00
2018-09-08T16:23:13.343Z,96072.00
2018-09-08T16:28:44.550Z,96070.00
2018-09-08T16:34:13.903Z,96067.00
2018-09-08T16:39:43.707Z,96059.00
2018-09-08T16:45:12.996Z,96067.00
2018-09-08T16:50:42.435Z,96057.00
2018-09-08T16:56:11.900Z,96052.00
2018-09-08T17:01:43.881Z,96061.00
2018-09-08T17:07:13.325Z,96057.00
2018-09-08T17:12:44.429Z,96070.00
2018-09-08T17:18:14.908Z,96064.00
2018-09-08T17:23:45.652Z,96073.00
2018-09-08T17:29:14.960Z,96078.00
2018-09-08T17:34:44.343Z,96078.00
2018-09-08T17:40:13.812Z,96080.00
2018-09-08T17:45:43.853Z,96088.00
2018-09-08T17:51:13.314Z,96088.00
2018-09-08T17:56:42.927Z,96087.00
2018-09-08T18:02:12.215Z,96102.00
2018-09-08T18:07:43.644Z,96104.00
2018-09-08T18:13:13.058Z,96109.00
2018-09-08T18:18:42.831Z,96106.00
2018-09-08T18:24:12.796Z,96104.00
2018-09-08T18:29:42.753Z,96116.00
2018-09-08T18:35:12.415Z,96125.00
2018-09-08T18:40:42.225Z,96120.00
2018-09-08T18:46:11.755Z,96121.00
2018-09-08T18:51:41.518Z,96125.00
2018-09-08T18:57:13.197Z,96119.00
2018-09-08T19:02:42.845Z,96119.00
2018-09-08T19:08:12.596Z,96117.00
2018-09-08T19:13:42.672Z,96116.00
2018-09-08T19:19:13.729Z,96126.00
2018-09-08T19:24:44.359Z,96123.00
2018-09-08T19:30:13.829Z,96130.00
2018-09-08T19:35:43.800Z,96133.00
2018-09-08T19:41:13.386Z,96134.00
2018-09-08T19:46:48.491Z,96126.00
2018-09-08T19:52:23.407Z,96121.00
2018-09-08T19:57:57.890Z,96122.00
2018-09-08T20:03:27.457Z,96122.00
2018-09-08T20:08:56.787Z,96125.00
2018-09-08T20:14:30.450Z,96125.00
2018-09-08T20:19:59.976Z,96139.00
2018-09-08T20:25:29.332Z,96138.00
2018-09-08T20:30:58.860Z,96125.00
2018-09-08T20:36:28.364Z,96128.00
2018-09-08T20:41:57.728Z,96130.00
2018-09-08T20:47:28.159Z,96130.00
2018-09-08T20:52:57.469Z,96131.00
2018-09-08T20:58:27.017Z,96130.00
2018-09-08T21:03:56.708Z,96131.00
2018-09-08T21:09:26.384Z,96138.00
2018-09-08T21:14:55.899Z,96146.00
2018-09-08T21:20:25.359Z,96148.00
2018-09-08T21:25:54.735Z,96155.00
2018-09-08T21:31:24.141Z,96154.00
2018-09-08T21:36:53.732Z,96161.00
2018-09-08T21:42:23.366Z,96161.00
2018-09-08T21:47:53.376Z,96150.00
2018-09-08T21:53:22.957Z,96152.00
2018-09-08T21:58:52.650Z,96159.00
2018-09-08T22:04:22.287Z,96160.00
2018-09-08T22:09:51.855Z,96158.00
2018-09-08T22:15:21.314Z,96156.00
2018-09-08T22:20:50.874Z,96159.00
2018-09-08T22:26:20.448Z,96152.00
2018-09-08T22:31:50.229Z,96145.00
2018-09-08T22:37:19.507Z,96148.00
2018-09-08T22:42:50.006Z,96155.00
2018-09-08T22:48:19.308Z,96147.00
2018-09-08T22:53:48.607Z,96159.00
2018-09-08T22:59:17.919Z,96147.00
2018-09-08T23:04:47.287Z,96150.00
2018-09-08T23:10:16.631Z,96159.00
2018-09-08T23:15:46.148Z,96152.00
2018-09-08T23:21:15.620Z,96151.00
2018-09-08T23:26:44.914Z,96147.00
2018-09-08T23:32:15.154Z,96156.00
2018-09-08T23:37:44.490Z,96145.00
2018-09-08T23:43:13.857Z,96138.00
2018-09-08T23:48:43.268Z,96140.00
2018-09-08T23:54:12.824Z,96132.00
2018-09-08T23:59:42.141Z,96131.00
